createdAt,value
2023-01-09T00:00:14.438Z,0
2023-01-09T00:01:14.389Z,0
2023-01-09T00:02:14.441Z,0
2023-01-09T00:03:14.409Z,0
2023-01-09T00:04:14.428Z,0
2023-01-09T00:05:14.389Z,0
2023-01-09T00:06:14.388Z,0
2023-01-09T00:07:14.393Z,0
2023-01-09T00:08:14.388Z,0
2023-01-09T00:09:14.413Z,0
2023-01-09T00:10:14.399Z,0
2023-01-09T00:11:14.397Z,0
2023-01-09T00:12:14.393Z,0
2023-01-09T00:13:14.392Z,0
2023-01-09T00:14:14.401Z,0
2023-01-09T00:15:14.394Z,0
2023-01-09T00:16:14.399Z,0
2023-01-09T00:17:14.399Z,0
2023-01-09T00:18:14.400Z,0
2023-01-09T00:19:14.407Z,0
2023-01-09T00:20:14.404Z,0
2023-01-09T00:21:14.482Z,0
2023-01-09T00:22:14.404Z,0
2023-01-09T00:23:14.404Z,0
2023-01-09T00:24:14.406Z,0
2023-01-09T00:25:14.529Z,0
2023-01-09T00:26:14.408Z,0
2023-01-09T00:27:14.411Z,0
2023-01-09T00:28:14.411Z,0
2023-01-09T00:29:14.407Z,0
2023-01-09T00:30:14.415Z,0
2023-01-09T00:31:14.408Z,0
2023-01-09T00:32:14.419Z,0
2023-01-09T00:33:14.418Z,0
2023-01-09T00:34:14.415Z,0
2023-01-09T00:35:14.420Z,0
2023-01-09T00:36:14.415Z,0
2023-01-09T00:37:14.421Z,0
2023-01-09T00:38:14.421Z,0
2023-01-09T00:39:14.421Z,0
2023-01-09T00:40:14.419Z,0
2023-01-09T00:41:14.444Z,0
2023-01-09T00:42:14.422Z,0
2023-01-09T00:43:14.425Z,0
2023-01-09T00:44:14.424Z,0
2023-01-09T00:45:14.425Z,0
2023-01-09T00:46:14.468Z,0
2023-01-09T00:47:14.449Z,0
2023-01-09T00:48:14.428Z,0
2023-01-09T00:49:14.440Z,0
2023-01-09T00:50:14.431Z,0
2023-01-09T00:51:14.429Z,0
2023-01-09T00:52:14.429Z,0
2023-01-09T00:53:14.428Z,0
2023-01-09T00:54:14.433Z,0
2023-01-09T00:55:14.429Z,0
2023-01-09T00:56:14.435Z,0
2023-01-09T00:57:14.575Z,0
2023-01-09T00:58:14.435Z,0
2023-01-09T00:59:14.440Z,0
2023-01-09T01:00:14.442Z,0
2023-01-09T01:01:14.537Z,0
2023-01-09T01:02:14.632Z,0
2023-01-09T01:03:14.439Z,0
2023-01-09T01:04:14.439Z,0
2023-01-09T01:05:14.452Z,0
2023-01-09T01:06:14.441Z,0
2023-01-09T01:07:14.439Z,0
2023-01-09T01:08:14.444Z,0
2023-01-09T01:09:14.443Z,0
2023-01-09T01:10:14.447Z,0
2023-01-09T01:11:14.444Z,0
2023-01-09T01:12:14.446Z,0
2023-01-09T01:13:14.471Z,0
2023-01-09T01:14:14.447Z,0
2023-01-09T01:15:14.450Z,0
2023-01-09T01:16:14.447Z,0
2023-01-09T01:17:14.452Z,0
2023-01-09T01:18:14.453Z,0
2023-01-09T01:19:14.451Z,0
2023-01-09T01:20:14.454Z,0
2023-01-09T01:21:14.452Z,0
2023-01-09T01:22:14.465Z,0
2023-01-09T01:23:14.453Z,0
2023-01-09T01:24:14.457Z,0
2023-01-09T01:25:14.458Z,0
2023-01-09T01:26:14.460Z,0
2023-01-09T01:27:14.460Z,0
2023-01-09T01:28:14.457Z,0
2023-01-09T01:29:14.489Z,0
2023-01-09T01:30:14.469Z,0
2023-01-09T01:31:14.463Z,0
2023-01-09T01:32:14.464Z,0
2023-01-09T01:33:14.464Z,0
2023-01-09T01:34:14.483Z,0
2023-01-09T01:35:14.468Z,0
2023-01-09T01:36:14.467Z,0
2023-01-09T01:37:14.465Z,0
2023-01-09T01:38:14.468Z,0
2023-01-09T01:39:14.469Z,0
2023-01-09T01:40:14.471Z,0
2023-01-09T01:41:14.472Z,0
2023-01-09T01:42:14.476Z,0
2023-01-09T01:43:14.469Z,0
2023-01-09T01:44:14.475Z,0
2023-01-09T01:45:14.500Z,0
2023-01-09T01:46:14.520Z,0
2023-01-09T01:47:14.477Z,0
2023-01-09T01:48:14.477Z,0
2023-01-09T01:49:14.470Z,0
2023-01-09T01:50:14.483Z,0
2023-01-09T01:51:14.476Z,0
2023-01-09T01:52:14.482Z,0
2023-01-09T01:53:14.478Z,0
2023-01-09T01:54:14.480Z,0
2023-01-09T01:55:14.483Z,0
2023-01-09T01:56:14.487Z,0
2023-01-09T01:57:14.482Z,0
2023-01-09T01:58:14.482Z,0
2023-01-09T01:59:14.511Z,0
2023-01-09T02:00:14.486Z,0
2023-01-09T02:01:14.600Z,0
2023-01-09T02:02:14.576Z,0
2023-01-09T02:03:14.495Z,0
2023-01-09T02:04:14.495Z,0
2023-01-09T02:05:14.495Z,0
2023-01-09T02:06:14.495Z,0
2023-01-09T02:07:14.502Z,0
2023-01-09T02:08:14.499Z,0
2023-01-09T02:09:14.496Z,0
2023-01-09T02:10:14.509Z,0
2023-01-09T02:11:14.505Z,0
2023-01-09T02:12:14.505Z,0
2023-01-09T02:13:14.517Z,0
2023-01-09T02:14:14.513Z,0
2023-01-09T02:15:14.507Z,0
2023-01-09T02:16:14.544Z,0
2023-01-09T02:17:14.549Z,0
2023-01-09T02:18:14.507Z,0
2023-01-09T02:19:14.506Z,0
2023-01-09T02:20:14.520Z,0
2023-01-09T02:21:14.509Z,0
2023-01-09T02:22:14.514Z,0
2023-01-09T02:23:14.509Z,0
2023-01-09T02:24:14.514Z,0
2023-01-09T02:25:14.512Z,0
2023-01-09T02:26:14.513Z,0
2023-01-09T02:27:14.532Z,0
2023-01-09T02:28:14.511Z,0
2023-01-09T02:29:14.512Z,0
2023-01-09T02:30:14.516Z,0
2023-01-09T02:31:14.630Z,0
2023-01-09T02:32:14.515Z,0
2023-01-09T02:33:14.545Z,0
2023-01-09T02:34:14.515Z,0
2023-01-09T02:35:14.531Z,0
2023-01-09T02:36:14.518Z,0
2023-01-09T02:37:14.527Z,0
2023-01-09T02:38:14.524Z,0
2023-01-09T02:39:14.534Z,0
2023-01-09T02:40:14.521Z,0
2023-01-09T02:41:14.524Z,0
2023-01-09T02:42:14.525Z,0
2023-01-09T02:43:14.534Z,0
2023-01-09T02:44:14.522Z,0
2023-01-09T02:45:14.528Z,0
2023-01-09T02:46:14.527Z,0
2023-01-09T02:47:14.526Z,0
2023-01-09T02:48:14.536Z,0
2023-01-09T02:49:14.556Z,0
2023-01-09T02:50:14.532Z,0
2023-01-09T02:51:14.528Z,0
2023-01-09T02:52:14.531Z,0
2023-01-09T02:53:14.547Z,0
2023-01-09T02:54:14.534Z,0
2023-01-09T02:55:14.536Z,0
2023-01-09T02:56:14.537Z,0
2023-01-09T02:57:14.535Z,0
2023-01-09T02:58:14.536Z,0
2023-01-09T02:59:14.536Z,0
2023-01-09T03:00:14.545Z,0
2023-01-09T03:01:14.654Z,0
2023-01-09T03:02:14.541Z,0
2023-01-09T03:03:14.614Z,0
2023-01-09T03:04:14.545Z,0
2023-01-09T03:05:14.575Z,0
2023-01-09T03:06:14.541Z,0
2023-01-09T03:07:14.544Z,52
2023-01-09T03:08:14.544Z,0
2023-01-09T03:09:14.545Z,0
2023-01-09T03:10:14.545Z,0
2023-01-09T03:11:14.544Z,0
2023-01-09T03:12:14.547Z,0
2023-01-09T03:13:14.546Z,0
2023-01-09T03:14:14.547Z,0
2023-01-09T03:15:14.549Z,0
2023-01-09T03:16:14.613Z,0
2023-01-09T03:17:14.546Z,0
2023-01-09T03:18:14.550Z,0
2023-01-09T03:19:14.553Z,0
2023-01-09T03:20:14.549Z,0
2023-01-09T03:21:14.573Z,0
2023-01-09T03:22:14.547Z,0
2023-01-09T03:23:14.548Z,0
2023-01-09T03:24:14.551Z,0
2023-01-09T03:25:14.554Z,0
2023-01-09T03:26:14.549Z,0
2023-01-09T03:27:14.555Z,0
2023-01-09T03:28:14.547Z,0
2023-01-09T03:29:14.552Z,0
2023-01-09T03:30:14.555Z,0
2023-01-09T03:31:14.579Z,0
2023-01-09T03:32:14.554Z,0
2023-01-09T03:33:14.554Z,0
2023-01-09T03:34:14.557Z,0
2023-01-09T03:35:14.551Z,0
2023-01-09T03:36:14.571Z,0
2023-01-09T03:37:14.582Z,0
2023-01-09T03:38:14.555Z,0
2023-01-09T03:39:14.559Z,0
2023-01-09T03:40:14.563Z,0
2023-01-09T03:41:14.561Z,0
2023-01-09T03:42:14.577Z,0
2023-01-09T03:43:14.563Z,0
2023-01-09T03:44:14.555Z,0
2023-01-09T03:45:14.567Z,0
2023-01-09T03:46:14.592Z,0
2023-01-09T03:47:14.573Z,0
2023-01-09T03:48:14.561Z,0
2023-01-09T03:49:14.576Z,0
2023-01-09T03:50:14.572Z,0
2023-01-09T03:51:14.558Z,0
2023-01-09T03:52:14.561Z,0
2023-01-09T03:53:14.590Z,0
2023-01-09T03:54:14.559Z,0
2023-01-09T03:55:15.694Z,0
2023-01-09T03:56:14.560Z,0
2023-01-09T03:57:14.563Z,0
2023-01-09T03:58:14.570Z,0
2023-01-09T03:59:14.566Z,0
2023-01-09T04:00:14.593Z,0
2023-01-09T04:01:14.683Z,0
2023-01-09T04:02:14.795Z,0
2023-01-09T04:03:14.572Z,0
2023-01-09T04:04:14.620Z,0
2023-01-09T04:05:14.567Z,0
2023-01-09T04:06:14.572Z,0
2023-01-09T04:07:14.571Z,0
2023-01-09T04:08:14.569Z,0
2023-01-09T04:09:14.597Z,0
2023-01-09T04:10:14.569Z,0
2023-01-09T04:11:14.573Z,0
2023-01-09T04:12:14.573Z,0
2023-01-09T04:13:14.575Z,0
2023-01-09T04:14:14.572Z,0
2023-01-09T04:15:14.581Z,0
2023-01-09T04:16:14.596Z,0
2023-01-09T04:17:14.579Z,0
2023-01-09T04:18:14.579Z,0
2023-01-09T04:19:14.577Z,0
2023-01-09T04:20:14.576Z,0
2023-01-09T04:21:14.580Z,0
2023-01-09T04:22:14.591Z,0
2023-01-09T04:23:14.578Z,0
2023-01-09T04:24:14.586Z,0
2023-01-09T04:25:14.617Z,0
2023-01-09T04:26:14.583Z,0
2023-01-09T04:27:14.584Z,0
2023-01-09T04:28:14.589Z,0
2023-01-09T04:29:14.593Z,0
2023-01-09T04:30:14.585Z,0
2023-01-09T04:31:14.615Z,0
2023-01-09T04:32:14.584Z,0
2023-01-09T04:33:14.588Z,0
2023-01-09T04:34:14.587Z,0
2023-01-09T04:35:14.594Z,0
2023-01-09T04:36:14.588Z,0
2023-01-09T04:37:14.586Z,0
2023-01-09T04:38:14.597Z,0
2023-01-09T04:39:14.588Z,0
2023-01-09T04:40:14.589Z,0
2023-01-09T04:41:14.616Z,0
2023-01-09T04:42:14.594Z,0
2023-01-09T04:43:14.594Z,0
2023-01-09T04:44:14.593Z,0
2023-01-09T04:45:14.595Z,0
2023-01-09T04:46:14.598Z,0
2023-01-09T04:47:14.595Z,0
2023-01-09T04:48:14.598Z,0
2023-01-09T04:49:14.594Z,0
2023-01-09T04:50:14.593Z,0
2023-01-09T04:51:14.595Z,0
2023-01-09T04:52:14.596Z,0
2023-01-09T04:53:14.597Z,0
2023-01-09T04:54:14.602Z,0
2023-01-09T04:55:14.612Z,0
2023-01-09T04:56:14.600Z,0
2023-01-09T04:57:14.625Z,0
2023-01-09T04:58:14.599Z,0
2023-01-09T04:59:14.609Z,0
2023-01-09T05:00:14.608Z,0
2023-01-09T05:01:14.715Z,0
2023-01-09T05:02:14.693Z,0
2023-01-09T05:03:14.604Z,0
2023-01-09T05:04:14.630Z,0
2023-01-09T05:05:14.603Z,0
2023-01-09T05:06:14.602Z,0
2023-01-09T05:07:14.610Z,0
2023-01-09T05:08:14.612Z,0
2023-01-09T05:09:14.602Z,0
2023-01-09T05:10:14.603Z,0
2023-01-09T05:11:14.611Z,0
2023-01-09T05:12:14.609Z,0
2023-01-09T05:13:14.635Z,0
2023-01-09T05:14:14.608Z,0
2023-01-09T05:15:14.608Z,0
2023-01-09T05:16:14.671Z,0
2023-01-09T05:17:14.615Z,0
2023-01-09T05:18:14.620Z,0
2023-01-09T05:19:14.904Z,0
2023-01-09T05:20:14.616Z,0
2023-01-09T05:21:14.611Z,0
2023-01-09T05:22:14.613Z,0
2023-01-09T05:23:14.620Z,0
2023-01-09T05:24:14.615Z,0
2023-01-09T05:25:14.614Z,0
2023-01-09T05:26:14.613Z,0
2023-01-09T05:27:14.614Z,0
2023-01-09T05:28:14.616Z,0
2023-01-09T05:29:14.641Z,0
2023-01-09T05:30:16.637Z,0
2023-01-09T05:31:14.638Z,0
2023-01-09T05:32:14.622Z,0
2023-01-09T05:33:14.616Z,0
2023-01-09T05:34:14.617Z,0
2023-01-09T05:35:14.621Z,0
2023-01-09T05:36:14.629Z,0
2023-01-09T05:37:14.622Z,0
2023-01-09T05:38:14.623Z,0
2023-01-09T05:39:14.635Z,0
2023-01-09T05:40:14.614Z,0
2023-01-09T05:41:14.624Z,0
2023-01-09T05:42:14.617Z,0
2023-01-09T05:43:14.625Z,0
2023-01-09T05:44:14.638Z,0
2023-01-09T05:45:14.658Z,0
2023-01-09T05:46:14.624Z,0
2023-01-09T05:47:14.626Z,0
2023-01-09T05:48:14.634Z,0
2023-01-09T05:49:14.630Z,0
2023-01-09T05:50:14.638Z,0
2023-01-09T05:51:14.627Z,0
2023-01-09T05:52:14.632Z,0
2023-01-09T05:53:14.629Z,0
2023-01-09T05:54:14.633Z,0
2023-01-09T05:55:14.634Z,0
2023-01-09T05:56:14.645Z,0
2023-01-09T05:57:14.632Z,0
2023-01-09T05:58:14.632Z,0
2023-01-09T05:59:14.633Z,0
2023-01-09T06:00:14.635Z,0
2023-01-09T06:01:14.704Z,0
2023-01-09T06:02:14.713Z,0
2023-01-09T06:03:14.674Z,0
2023-01-09T06:04:14.642Z,0
2023-01-09T06:05:14.652Z,0
2023-01-09T06:06:14.639Z,0
2023-01-09T06:07:18.631Z,0
2023-01-09T06:08:14.637Z,0
2023-01-09T06:09:14.635Z,0
2023-01-09T06:10:14.633Z,0
2023-01-09T06:11:14.637Z,0
2023-01-09T06:12:14.633Z,0
2023-01-09T06:13:14.635Z,0
2023-01-09T06:14:14.633Z,0
2023-01-09T06:15:14.638Z,0
2023-01-09T06:16:14.660Z,0
2023-01-09T06:17:14.671Z,0
2023-01-09T06:18:14.637Z,0
2023-01-09T06:19:14.635Z,0
2023-01-09T06:20:14.638Z,0
2023-01-09T06:21:14.639Z,0
2023-01-09T06:22:14.635Z,0
2023-01-09T06:23:14.637Z,0
2023-01-09T06:24:14.647Z,0
2023-01-09T06:25:14.645Z,0
2023-01-09T06:26:14.645Z,0
2023-01-09T06:27:14.639Z,0
2023-01-09T06:28:14.644Z,0
2023-01-09T06:29:14.642Z,0
2023-01-09T06:30:14.652Z,0
2023-01-09T06:31:14.664Z,0
2023-01-09T06:32:14.650Z,0
2023-01-09T06:33:14.669Z,0
2023-01-09T06:34:14.637Z,0
2023-01-09T06:35:14.651Z,0
2023-01-09T06:36:14.645Z,0
2023-01-09T06:37:14.647Z,0
2023-01-09T06:38:14.655Z,0
2023-01-09T06:39:14.643Z,0
2023-01-09T06:40:14.644Z,0
2023-01-09T06:41:14.646Z,0
2023-01-09T06:42:14.648Z,0
2023-01-09T06:43:14.645Z,1
2023-01-09T06:44:14.649Z,1
2023-01-09T06:45:14.645Z,1
2023-01-09T06:46:14.691Z,1
2023-01-09T06:47:14.651Z,1
2023-01-09T06:48:14.651Z,2
2023-01-09T06:49:14.674Z,2
2023-01-09T06:50:14.656Z,2
2023-01-09T06:51:14.650Z,2
2023-01-09T06:52:14.651Z,2
2023-01-09T06:53:14.649Z,4
2023-01-09T06:54:14.650Z,4
2023-01-09T06:55:14.650Z,4
2023-01-09T06:56:14.678Z,4
2023-01-09T06:57:14.652Z,4
2023-01-09T06:58:14.653Z,5
2023-01-09T06:59:14.650Z,5
2023-01-09T07:00:14.655Z,5
2023-01-09T07:01:14.722Z,5
2023-01-09T07:02:14.674Z,5
2023-01-09T07:03:14.658Z,6
2023-01-09T07:04:14.722Z,6
2023-01-09T07:05:14.692Z,6
2023-01-09T07:06:14.656Z,6
2023-01-09T07:07:14.659Z,6
2023-01-09T07:08:14.663Z,6
2023-01-09T07:09:14.658Z,6
2023-01-09T07:10:14.661Z,6
2023-01-09T07:11:14.658Z,6
2023-01-09T07:12:14.659Z,6
2023-01-09T07:13:14.669Z,7
2023-01-09T07:14:14.684Z,7
2023-01-09T07:15:14.732Z,7
2023-01-09T07:16:14.692Z,7
2023-01-09T07:17:14.665Z,7
2023-01-09T07:18:14.694Z,6
2023-01-09T07:19:14.665Z,6
2023-01-09T07:20:14.696Z,6
2023-01-09T07:21:14.691Z,6
2023-01-09T07:22:14.663Z,6
2023-01-09T07:23:14.661Z,6
2023-01-09T07:24:14.660Z,6
2023-01-09T07:25:14.664Z,6
2023-01-09T07:26:14.662Z,6
2023-01-09T07:27:14.662Z,6
2023-01-09T07:28:14.660Z,8
2023-01-09T07:29:14.667Z,8
2023-01-09T07:30:14.684Z,8
2023-01-09T07:31:14.725Z,9
2023-01-09T07:32:14.661Z,9
2023-01-09T07:33:14.663Z,9
2023-01-09T07:34:14.667Z,9
2023-01-09T07:35:14.666Z,9
2023-01-09T07:36:14.721Z,9
2023-01-09T07:37:14.694Z,11
2023-01-09T07:38:14.679Z,11
2023-01-09T07:39:14.697Z,11
2023-01-09T07:40:14.666Z,11
2023-01-09T07:41:14.662Z,11
2023-01-09T07:42:14.661Z,11
2023-01-09T07:43:14.662Z,11
2023-01-09T07:44:14.664Z,11
2023-01-09T07:45:14.668Z,11
2023-01-09T07:46:14.677Z,11
2023-01-09T07:47:14.668Z,16
2023-01-09T07:48:14.665Z,16
2023-01-09T07:49:14.669Z,16
2023-01-09T07:50:14.668Z,16
2023-01-09T07:51:14.668Z,16
2023-01-09T07:52:14.671Z,27
2023-01-09T07:53:14.698Z,27
2023-01-09T07:54:14.674Z,27
2023-01-09T07:55:16.613Z,27
2023-01-09T07:56:14.667Z,27
2023-01-09T07:57:14.671Z,34
2023-01-09T07:58:14.671Z,34
2023-01-09T07:59:14.671Z,34
2023-01-09T08:00:14.675Z,34
2023-01-09T08:01:14.785Z,34
2023-01-09T08:02:14.669Z,35
2023-01-09T08:03:14.673Z,35
2023-01-09T08:04:14.672Z,35
2023-01-09T08:05:14.700Z,35
2023-01-09T08:06:14.671Z,35
2023-01-09T08:07:14.676Z,46
2023-01-09T08:08:14.674Z,46
2023-01-09T08:09:14.697Z,46
2023-01-09T08:10:14.675Z,46
2023-01-09T08:11:14.670Z,46
2023-01-09T08:12:14.674Z,74
2023-01-09T08:13:14.679Z,74
2023-01-09T08:14:14.697Z,74
2023-01-09T08:15:14.669Z,74
2023-01-09T08:16:14.702Z,74
2023-01-09T08:17:14.679Z,104
2023-01-09T08:18:14.673Z,104
2023-01-09T08:19:14.677Z,104
2023-01-09T08:20:14.676Z,104
2023-01-09T08:21:14.680Z,104
2023-01-09T08:22:14.677Z,119
2023-01-09T08:23:14.675Z,119
2023-01-09T08:24:14.685Z,119
2023-01-09T08:25:14.732Z,119
2023-01-09T08:26:14.675Z,119
2023-01-09T08:27:14.679Z,116
2023-01-09T08:28:14.677Z,116
2023-01-09T08:29:14.679Z,116
2023-01-09T08:30:14.679Z,116
2023-01-09T08:31:14.718Z,116
2023-01-09T08:32:14.689Z,112
2023-01-09T08:33:14.678Z,112
2023-01-09T08:34:14.677Z,112
2023-01-09T08:35:14.678Z,112
2023-01-09T08:36:14.757Z,112
2023-01-09T08:37:14.675Z,125
2023-01-09T08:38:14.685Z,125
2023-01-09T08:39:14.680Z,125
2023-01-09T08:40:14.680Z,125
2023-01-09T08:41:14.893Z,125
2023-01-09T08:42:14.684Z,141
2023-01-09T08:43:14.684Z,141
2023-01-09T08:44:14.680Z,141
2023-01-09T08:45:14.689Z,141
2023-01-09T08:46:14.706Z,141
2023-01-09T08:47:14.685Z,123
2023-01-09T08:48:14.721Z,123
2023-01-09T08:49:14.697Z,123
2023-01-09T08:50:14.687Z,123
2023-01-09T08:51:14.685Z,123
2023-01-09T08:52:14.684Z,120
2023-01-09T08:53:14.683Z,120
2023-01-09T08:54:14.729Z,120
2023-01-09T08:55:14.686Z,120
2023-01-09T08:56:14.686Z,120
2023-01-09T08:57:14.746Z,97
2023-01-09T08:58:14.691Z,97
2023-01-09T08:59:14.690Z,97
2023-01-09T09:00:14.690Z,97
2023-01-09T09:01:14.728Z,97
2023-01-09T09:02:14.691Z,88
2023-01-09T09:03:14.699Z,88
2023-01-09T09:04:14.697Z,88
2023-01-09T09:05:14.701Z,88
2023-01-09T09:06:14.700Z,88
2023-01-09T09:07:14.697Z,95
2023-01-09T09:08:14.700Z,95
2023-01-09T09:09:14.705Z,95
2023-01-09T09:10:14.705Z,95
2023-01-09T09:11:14.706Z,95
2023-01-09T09:12:14.714Z,132
2023-01-09T09:13:14.727Z,132
2023-01-09T09:14:14.707Z,132
2023-01-09T09:15:14.709Z,132
2023-01-09T09:16:14.803Z,132
2023-01-09T09:17:14.718Z,153
2023-01-09T09:18:14.712Z,153
2023-01-09T09:19:14.714Z,153
2023-01-09T09:20:14.727Z,153
2023-01-09T09:21:14.716Z,153
2023-01-09T09:22:14.740Z,193
2023-01-09T09:23:14.723Z,193
2023-01-09T09:24:14.724Z,193
2023-01-09T09:25:14.726Z,193
2023-01-09T09:26:14.722Z,193
2023-01-09T09:27:14.721Z,212
2023-01-09T09:28:14.724Z,212
2023-01-09T09:29:14.757Z,212
2023-01-09T09:30:14.726Z,212
2023-01-09T09:31:14.743Z,212
2023-01-09T09:32:14.726Z,221
2023-01-09T09:33:14.741Z,221
2023-01-09T09:34:14.725Z,221
2023-01-09T09:35:14.733Z,221
2023-01-09T09:36:14.732Z,221
2023-01-09T09:37:14.723Z,283
2023-01-09T09:38:14.727Z,283
2023-01-09T09:39:14.729Z,283
2023-01-09T09:40:18.556Z,283
2023-01-09T09:41:14.728Z,283
2023-01-09T09:42:14.730Z,313
2023-01-09T09:43:14.729Z,313
2023-01-09T09:44:14.733Z,313
2023-01-09T09:45:14.762Z,313
2023-01-09T09:46:14.753Z,313
2023-01-09T09:47:14.735Z,297
2023-01-09T09:48:14.733Z,297
2023-01-09T09:49:14.734Z,297
2023-01-09T09:50:14.739Z,297
2023-01-09T09:51:14.737Z,297
2023-01-09T09:52:14.740Z,323
2023-01-09T09:53:14.742Z,323
2023-01-09T09:54:14.742Z,323
2023-01-09T09:55:14.742Z,323
2023-01-09T09:56:14.752Z,323
2023-01-09T09:57:14.747Z,368
2023-01-09T09:58:14.745Z,368
2023-01-09T09:59:14.743Z,368
2023-01-09T10:00:14.745Z,368
2023-01-09T10:01:14.773Z,368
2023-01-09T10:02:14.799Z,410
2023-01-09T10:03:18.314Z,410
2023-01-09T10:04:14.750Z,410
2023-01-09T10:05:14.751Z,410
2023-01-09T10:06:14.753Z,410
2023-01-09T10:07:14.757Z,504
2023-01-09T10:08:15.917Z,504
2023-01-09T10:09:14.752Z,504
2023-01-09T10:10:14.756Z,504
2023-01-09T10:11:14.757Z,504
2023-01-09T10:12:14.759Z,604
2023-01-09T10:13:14.759Z,604
2023-01-09T10:14:23.491Z,604
2023-01-09T10:15:14.759Z,604
2023-01-09T10:16:14.809Z,604
2023-01-09T10:17:14.791Z,647
2023-01-09T10:18:14.766Z,647
2023-01-09T10:19:14.777Z,647
2023-01-09T10:20:14.772Z,647
2023-01-09T10:21:14.766Z,647
2023-01-09T10:22:14.770Z,661
2023-01-09T10:23:14.774Z,661
2023-01-09T10:24:14.775Z,661
2023-01-09T10:25:14.782Z,661
2023-01-09T10:26:14.790Z,661
2023-01-09T10:27:14.782Z,682
2023-01-09T10:28:14.774Z,682
2023-01-09T10:29:14.779Z,698
2023-01-09T10:30:14.777Z,703
2023-01-09T10:31:14.821Z,703
2023-01-09T10:32:14.779Z,703
2023-01-09T10:33:14.810Z,703
2023-01-09T10:34:14.780Z,703
2023-01-09T10:35:14.802Z,711
2023-01-09T10:36:14.780Z,711
2023-01-09T10:37:14.785Z,699
2023-01-09T10:38:14.828Z,699
2023-01-09T10:39:14.785Z,699
2023-01-09T10:40:14.799Z,699
2023-01-09T10:41:14.793Z,699
2023-01-09T10:42:14.784Z,717
2023-01-09T10:43:14.787Z,717
2023-01-09T10:44:14.791Z,717
2023-01-09T10:45:14.789Z,717
2023-01-09T10:46:14.827Z,717
2023-01-09T10:47:14.792Z,656
2023-01-09T10:48:14.796Z,656
2023-01-09T10:49:14.819Z,656
2023-01-09T10:50:14.801Z,656
2023-01-09T10:51:14.795Z,656
2023-01-09T10:52:15.736Z,612
2023-01-09T10:53:14.794Z,612
2023-01-09T10:54:14.796Z,612
2023-01-09T10:55:14.794Z,612
2023-01-09T10:56:14.796Z,612
2023-01-09T10:57:14.812Z,606
2023-01-09T10:58:14.799Z,606
2023-01-09T10:59:14.817Z,606
2023-01-09T11:00:14.793Z,606
2023-01-09T11:01:14.803Z,606
2023-01-09T11:02:14.863Z,638
2023-01-09T11:03:14.882Z,638
2023-01-09T11:04:14.803Z,638
2023-01-09T11:05:14.826Z,638
2023-01-09T11:06:14.807Z,638
2023-01-09T11:07:14.806Z,639
2023-01-09T11:08:14.804Z,639
2023-01-09T11:09:14.811Z,639
2023-01-09T11:10:14.808Z,639
2023-01-09T11:11:14.813Z,639
2023-01-09T11:12:14.810Z,595
2023-01-09T11:13:14.817Z,581
2023-01-09T11:14:14.816Z,560
2023-01-09T11:15:14.813Z,560
2023-01-09T11:16:14.909Z,560
2023-01-09T11:17:14.813Z,526
2023-01-09T11:18:14.816Z,526
2023-01-09T11:19:14.817Z,526
2023-01-09T11:20:14.818Z,526
2023-01-09T11:21:14.871Z,526
2023-01-09T11:22:14.815Z,522
2023-01-09T11:23:14.818Z,522
2023-01-09T11:24:14.817Z,522
2023-01-09T11:25:14.844Z,522
2023-01-09T11:26:14.818Z,522
2023-01-09T11:27:14.821Z,570
2023-01-09T11:28:14.821Z,570
2023-01-09T11:29:14.826Z,570
2023-01-09T11:30:14.824Z,570
2023-01-09T11:31:14.851Z,570
2023-01-09T11:32:14.849Z,650
2023-01-09T11:33:14.827Z,650
2023-01-09T11:34:14.828Z,650
2023-01-09T11:35:14.832Z,650
2023-01-09T11:36:14.830Z,650
2023-01-09T11:37:14.862Z,613
2023-01-09T11:38:14.834Z,613
2023-01-09T11:39:14.832Z,613
2023-01-09T11:40:14.837Z,613
2023-01-09T11:41:14.829Z,613
2023-01-09T11:42:14.832Z,564
2023-01-09T11:43:14.835Z,564
2023-01-09T11:44:14.832Z,564
2023-01-09T11:45:14.834Z,564
2023-01-09T11:46:14.850Z,564
2023-01-09T11:47:14.853Z,582
2023-01-09T11:48:14.835Z,582
2023-01-09T11:49:14.834Z,582
2023-01-09T11:50:14.839Z,582
2023-01-09T11:51:14.838Z,582
2023-01-09T11:52:14.846Z,617
2023-01-09T11:53:14.887Z,617
2023-01-09T11:54:14.839Z,617
2023-01-09T11:55:14.838Z,617
2023-01-09T11:56:14.844Z,617
2023-01-09T11:57:14.844Z,566
2023-01-09T11:58:14.843Z,566
2023-01-09T11:59:14.845Z,566
2023-01-09T12:00:14.846Z,566
2023-01-09T12:01:14.847Z,566
2023-01-09T12:02:14.865Z,491
2023-01-09T12:03:14.857Z,491
2023-01-09T12:04:14.852Z,491
2023-01-09T12:05:14.850Z,491
2023-01-09T12:06:14.851Z,491
2023-01-09T12:07:14.864Z,436
2023-01-09T12:08:14.853Z,436
2023-01-09T12:09:14.884Z,436
2023-01-09T12:10:14.853Z,436
2023-01-09T12:11:14.856Z,436
2023-01-09T12:12:16.415Z,385
2023-01-09T12:13:14.853Z,385
2023-01-09T12:14:14.852Z,385
2023-01-09T12:15:14.855Z,385
2023-01-09T12:16:14.895Z,385
2023-01-09T12:17:14.854Z,352
2023-01-09T12:18:14.852Z,352
2023-01-09T12:19:14.860Z,352
2023-01-09T12:20:14.859Z,352
2023-01-09T12:21:16.473Z,352
2023-01-09T12:22:14.855Z,333
2023-01-09T12:23:14.855Z,333
2023-01-09T12:24:14.860Z,333
2023-01-09T12:25:14.885Z,333
2023-01-09T12:26:14.863Z,333
2023-01-09T12:27:17.181Z,377
2023-01-09T12:28:14.866Z,377
2023-01-09T12:29:14.864Z,377
2023-01-09T12:30:14.932Z,377
2023-01-09T12:31:14.918Z,377
2023-01-09T12:32:14.884Z,415
2023-01-09T12:33:14.863Z,415
2023-01-09T12:34:14.869Z,415
2023-01-09T12:35:14.873Z,415
2023-01-09T12:36:14.880Z,415
2023-01-09T12:37:14.916Z,355
2023-01-09T12:38:14.872Z,355
2023-01-09T12:39:14.876Z,355
2023-01-09T12:40:14.898Z,355
2023-01-09T12:41:14.899Z,355
2023-01-09T12:42:14.876Z,374
2023-01-09T12:43:14.869Z,374
2023-01-09T12:44:18.103Z,374
2023-01-09T12:45:14.889Z,374
2023-01-09T12:46:14.945Z,374
2023-01-09T12:47:14.878Z,348
2023-01-09T12:48:14.879Z,348
2023-01-09T12:49:14.877Z,348
2023-01-09T12:50:14.891Z,348
2023-01-09T12:51:14.884Z,348
2023-01-09T12:52:14.878Z,326
2023-01-09T12:53:14.882Z,326
2023-01-09T12:54:14.927Z,326
2023-01-09T12:55:14.914Z,326
2023-01-09T12:56:14.943Z,326
2023-01-09T12:57:14.916Z,379
2023-01-09T12:58:14.886Z,379
2023-01-09T12:59:14.905Z,379
2023-01-09T13:00:14.889Z,379
2023-01-09T13:01:14.918Z,379
2023-01-09T13:02:14.912Z,429
2023-01-09T13:03:14.913Z,429
2023-01-09T13:04:14.893Z,429
2023-01-09T13:05:14.903Z,429
2023-01-09T13:06:14.893Z,429
2023-01-09T13:07:14.892Z,465
2023-01-09T13:08:14.895Z,465
2023-01-09T13:09:14.899Z,465
2023-01-09T13:10:14.893Z,465
2023-01-09T13:11:20.187Z,465
2023-01-09T13:12:14.900Z,465
2023-01-09T13:13:14.922Z,465
2023-01-09T13:14:14.896Z,465
2023-01-09T13:15:14.898Z,463
2023-01-09T13:16:14.922Z,463
2023-01-09T13:17:14.902Z,463
2023-01-09T13:18:14.901Z,463
2023-01-09T13:19:14.896Z,463
2023-01-09T13:20:14.912Z,373
2023-01-09T13:21:14.901Z,373
2023-01-09T13:22:14.912Z,373
2023-01-09T13:23:14.903Z,373
2023-01-09T13:24:14.904Z,373
2023-01-09T13:25:14.909Z,296
2023-01-09T13:26:14.903Z,296
2023-01-09T13:27:14.903Z,296
2023-01-09T13:28:14.901Z,296
2023-01-09T13:29:14.929Z,296
2023-01-09T13:30:14.907Z,264
2023-01-09T13:31:15.022Z,264
2023-01-09T13:32:14.905Z,264
2023-01-09T13:33:14.912Z,264
2023-01-09T13:34:21.709Z,264
2023-01-09T13:35:14.912Z,243
2023-01-09T13:36:14.908Z,243
2023-01-09T13:37:14.983Z,243
2023-01-09T13:38:14.912Z,243
2023-01-09T13:39:14.910Z,243
2023-01-09T13:40:14.909Z,206
2023-01-09T13:41:14.913Z,206
2023-01-09T13:42:14.911Z,206
2023-01-09T13:43:14.913Z,206
2023-01-09T13:44:14.912Z,206
2023-01-09T13:45:14.945Z,160
2023-01-09T13:46:14.979Z,160
2023-01-09T13:47:14.913Z,160
2023-01-09T13:48:14.917Z,160
2023-01-09T13:49:14.908Z,160
2023-01-09T13:50:14.915Z,108
2023-01-09T13:51:14.912Z,108
2023-01-09T13:52:14.930Z,108
2023-01-09T13:53:14.917Z,108
2023-01-09T13:54:14.914Z,108
2023-01-09T13:55:14.997Z,92
2023-01-09T13:56:14.917Z,92
2023-01-09T13:57:14.915Z,92
2023-01-09T13:58:14.940Z,92
2023-01-09T13:59:14.916Z,92
2023-01-09T14:00:14.921Z,98
2023-01-09T14:01:14.981Z,98
2023-01-09T14:02:14.947Z,98
2023-01-09T14:03:14.918Z,98
2023-01-09T14:04:15.120Z,98
2023-01-09T14:05:14.913Z,108
2023-01-09T14:06:14.918Z,108
2023-01-09T14:07:14.918Z,108
2023-01-09T14:08:14.922Z,108
2023-01-09T14:09:14.923Z,108
2023-01-09T14:10:15.725Z,111
2023-01-09T14:11:14.919Z,111
2023-01-09T14:12:14.923Z,111
2023-01-09T14:13:14.917Z,111
2023-01-09T14:14:14.920Z,111
2023-01-09T14:15:14.920Z,95
2023-01-09T14:16:14.937Z,95
2023-01-09T14:17:14.948Z,95
2023-01-09T14:18:14.924Z,95
2023-01-09T14:19:14.946Z,95